Time;durP1;ratioP1;P1;durP2;ratioP2;P2;SDS_P1;SDS_P2;PMS_P1;PMS_P2;Temp;Humidity;BMP_temperature;BMP_pressure;BME280_temperature;BME280_humidity;BME280_pressure;Samples;Min_cycle;Max_cycle;Signal;HPM_P1;HPM_P2
2023/04/15 00:02:21;;;;;;;6.47;3.10;;;6.00;1.00;;;;;;4989244;28;20305;-73
2023/04/15 00:04:47;;;;;;;5.20;3.20;;;6.00;1.00;;;;;;5004001;28;20527;-73
2023/04/15 00:07:13;;;;;;;9.90;4.60;;;6.00;1.00;;;;;;4988304;28;20539;-72
2023/04/15 00:09:40;;;;;;;7.10;3.93;;;6.10;1.00;;;;;;4994910;28;20972;-72
2023/04/15 00:12:06;;;;;;;12.53;5.03;;;6.10;1.00;;;;;;4987695;28;20474;-73
2023/04/15 00:14:34;;;;;;;8.40;5.00;;;6.10;1.00;;;;;;4993628;28;20924;-72
2023/04/15 00:17:00;;;;;;;7.90;4.17;;;6.10;1.00;;;;;;4987832;28;20438;-73
2023/04/15 00:19:25;;;;;;;8.03;4.43;;;6.10;1.00;;;;;;4988784;28;20472;-73
2023/04/15 00:21:51;;;;;;;7.53;4.43;;;6.00;1.00;;;;;;4995432;28;20609;-73
2023/04/15 00:24:16;;;;;;;7.23;3.77;;;6.10;1.00;;;;;;4993299;28;20522;-73
2023/04/15 00:26:42;;;;;;;8.93;3.80;;;6.10;1.00;;;;;;5000381;28;20329;-72
2023/04/15 00:29:07;;;;;;;8.03;3.33;;;6.00;1.00;;;;;;4987403;28;20278;-73
2023/04/15 00:31:33;;;;;;;7.37;3.90;;;5.80;1.00;;;;;;4995869;28;20187;-73
2023/04/15 00:33:58;;;;;;;7.63;4.30;;;5.70;1.00;;;;;;4994920;28;20214;-74
2023/04/15 00:36:25;;;;;;;5.00;3.50;;;5.70;1.00;;;;;;4987525;28;20218;-73
2023/04/15 00:38:50;;;;;;;7.47;3.20;;;5.70;1.00;;;;;;4997311;28;20213;-73
2023/04/15 00:41:18;;;;;;;7.63;3.87;;;5.60;1.00;;;;;;4991561;28;20441;-73
2023/04/15 00:43:43;;;;;;;8.60;4.00;;;5.50;1.00;;;;;;4994247;28;20215;-73
2023/04/15 00:46:13;;;;;;;7.13;4.40;;;5.40;1.00;;;;;;4995709;28;20466;-73
2023/04/15 00:48:39;;;;;;;5.40;3.73;;;5.30;1.00;;;;;;4988028;28;20195;-73
2023/04/15 00:51:06;;;;;;;8.87;3.70;;;5.20;1.00;;;;;;4994188;28;20481;-73
2023/04/15 00:53:31;;;;;;;9.47;4.00;;;5.10;1.00;;;;;;4987900;28;20446;-73
2023/04/15 00:55:57;;;;;;;5.50;2.97;;;5.00;1.00;;;;;;4995031;28;20472;-73
2023/04/15 00:58:23;;;;;;;5.43;3.30;;;5.00;1.00;;;;;;4989538;28;20217;-73
2023/04/15 01:00:53;;;;;;;8.13;3.40;;;5.00;1.00;;;;;;4999895;28;20186;-72
2023/04/15 01:03:19;;;;;;;10.47;3.70;;;5.00;1.00;;;;;;4993991;28;20454;-73
2023/04/15 01:05:45;;;;;;;6.43;3.20;;;4.90;1.00;;;;;;5002346;28;20511;-72
2023/04/15 01:08:11;;;;;;;7.10;3.37;;;4.90;1.00;;;;;;5000611;28;20441;-73
2023/04/15 01:10:36;;;;;;;10.60;3.77;;;4.90;1.00;;;;;;4995994;28;20283;-72
2023/04/15 01:13:02;;;;;;;8.37;3.40;;;4.90;1.00;;;;;;4992055;28;20223;-72
2023/04/15 01:15:28;;;;;;;5.10;3.00;;;4.90;1.00;;;;;;5005471;28;20302;-72
2023/04/15 01:17:54;;;;;;;9.17;3.10;;;4.90;1.00;;;;;;4991628;28;21035;-73
2023/04/15 01:20:21;;;;;;;6.80;3.30;;;4.80;1.00;;;;;;4984450;28;20175;-72
2023/04/15 01:22:47;;;;;;;5.20;3.30;;;4.80;1.00;;;;;;4990085;28;20801;-72
2023/04/15 01:25:17;;;;;;;6.40;2.90;;;4.80;1.00;;;;;;4989006;28;20844;-73
2023/04/15 01:27:43;;;;;;;6.27;3.30;;;4.90;1.00;;;;;;4992727;28;20948;-73
2023/04/15 01:30:09;;;;;;;5.07;3.37;;;4.90;1.00;;;;;;4990969;28;20559;-72
2023/04/15 01:32:35;;;;;;;6.20;3.60;;;4.80;1.00;;;;;;4990900;28;20654;-72
2023/04/15 01:35:01;;;;;;;8.93;4.10;;;4.70;1.00;;;;;;4990573;28;20468;-73
2023/04/15 01:37:27;;;;;;;7.83;4.40;;;4.70;1.00;;;;;;4990769;28;20449;-73
2023/04/15 01:39:53;;;;;;;9.10;4.00;;;4.70;1.00;;;;;;4989609;28;20442;-72
2023/04/15 01:42:20;;;;;;;6.90;3.60;;;4.80;1.00;;;;;;4996656;28;20183;-74
2023/04/15 01:44:45;;;;;;;7.60;4.13;;;4.80;1.00;;;;;;4990870;28;20754;-72
2023/04/15 01:47:11;;;;;;;7.10;3.97;;;4.80;1.00;;;;;;4990629;28;20533;-73
2023/04/15 01:49:37;;;;;;;8.57;4.00;;;4.40;1.00;;;;;;4990296;28;20657;-73
2023/04/15 01:52:02;;;;;;;5.93;4.50;;;4.80;1.00;;;;;;4998154;28;20183;-73
2023/04/15 01:54:28;;;;;;;6.23;4.00;;;4.90;1.00;;;;;;4991017;28;20617;-72
2023/04/15 01:56:53;;;;;;;12.13;4.90;;;4.90;1.00;;;;;;4991571;28;20715;-73
2023/04/15 01:59:19;;;;;;;8.70;5.10;;;4.90;1.00;;;;;;4988505;28;20631;-73
2023/04/15 02:01:45;;;;;;;9.93;5.03;;;4.90;1.00;;;;;;4994360;28;20214;-72
2023/04/15 02:04:16;;;;;;;7.73;4.50;;;4.90;1.00;;;;;;4986648;28;20180;-72
2023/04/15 02:06:42;;;;;;;7.17;4.83;;;4.80;1.00;;;;;;4990615;28;20557;-73
2023/04/15 02:09:08;;;;;;;6.20;4.50;;;4.70;1.00;;;;;;4990728;28;20422;-73
2023/04/15 02:11:36;;;;;;;5.70;4.07;;;4.70;1.00;;;;;;4982518;28;20437;-73
2023/04/15 02:14:03;;;;;;;6.13;4.70;;;4.60;1.00;;;;;;4991265;28;20449;-73
2023/04/15 02:16:28;;;;;;;7.57;4.47;;;4.60;1.00;;;;;;4988795;28;20517;-72
2023/04/15 02:18:54;;;;;;;6.57;4.70;;;4.60;1.00;;;;;;4990137;28;20463;-73
2023/04/15 02:21:19;;;;;;;9.63;4.87;;;4.60;1.00;;;;;;4985751;28;20194;-72
2023/04/15 02:23:47;;;;;;;11.83;5.67;;;4.80;1.00;;;;;;4986709;28;20640;-73
2023/04/15 02:26:12;;;;;;;7.77;4.60;;;4.50;1.00;;;;;;4988745;28;20214;-73
2023/04/15 02:28:38;;;;;;;8.00;5.10;;;4.40;1.00;;;;;;4998968;28;20442;-73
2023/04/15 02:31:07;;;;;;;8.33;5.37;;;4.40;1.00;;;;;;4992619;28;20195;-74
2023/04/15 02:33:32;;;;;;;6.93;5.00;;;4.50;1.00;;;;;;5006806;28;20190;-74
2023/04/15 02:35:58;;;;;;;9.03;5.60;;;4.40;1.00;;;;;;4990609;28;20474;-75
2023/04/15 02:38:24;;;;;;;8.57;5.20;;;4.40;1.00;;;;;;4991633;28;20289;-74
2023/04/15 02:40:49;;;;;;;12.77;5.53;;;4.40;1.00;;;;;;5004774;28;20179;-74
2023/04/15 02:43:19;;;;;;;8.77;4.60;;;4.30;1.00;;;;;;4999402;28;20186;-74
2023/04/15 02:45:46;;;;;;;7.40;5.07;;;4.30;1.00;;;;;;4998250;28;20198;-74
2023/04/15 02:48:11;;;;;;;7.50;4.70;;;4.30;1.00;;;;;;5008097;28;20808;-74
2023/04/15 02:50:40;;;;;;;7.40;4.33;;;4.30;1.00;;;;;;4992309;28;20434;-74
2023/04/15 02:53:06;;;;;;;8.37;4.63;;;4.30;1.00;;;;;;5003159;28;20222;-74
2023/04/15 02:55:31;;;;;;;6.60;4.53;;;4.60;1.00;;;;;;4990626;28;20560;-75
2023/04/15 02:58:00;;;;;;;11.37;4.93;;;4.50;1.00;;;;;;4998689;28;20215;-75
2023/04/15 03:00:26;;;;;;;9.27;5.30;;;4.40;1.00;;;;;;4998868;28;20270;-74
2023/04/15 03:02:56;;;;;;;8.03;5.03;;;4.50;1.00;;;;;;4990975;28;21007;-74
2023/04/15 03:05:24;;;;;;;7.93;5.23;;;4.30;1.00;;;;;;4989074;28;20457;-74
2023/04/15 03:07:51;;;;;;;6.73;4.53;;;4.30;1.00;;;;;;4997574;28;20527;-75
2023/04/15 03:10:16;;;;;;;7.37;5.03;;;4.30;1.00;;;;;;4999045;28;20472;-74
2023/04/15 03:12:42;;;;;;;8.10;4.40;;;4.20;1.00;;;;;;4990247;28;20818;-74
2023/04/15 03:15:09;;;;;;;5.83;4.00;;;4.10;1.00;;;;;;4990471;28;20211;-74
2023/04/15 03:17:34;;;;;;;6.83;4.40;;;4.10;1.00;;;;;;4988545;28;20662;-74
2023/04/15 03:20:02;;;;;;;7.07;3.87;;;4.10;1.00;;;;;;4990804;28;20645;-74
2023/04/15 03:22:27;;;;;;;4.50;3.60;;;4.00;1.00;;;;;;4990118;28;20230;-75
2023/04/15 03:24:53;;;;;;;6.60;4.30;;;3.80;1.00;;;;;;4985694;28;20447;-75
2023/04/15 03:27:18;;;;;;;4.87;3.60;;;3.70;1.00;;;;;;4987518;28;20335;-75
2023/04/15 03:29:44;;;;;;;8.63;3.83;;;3.70;1.00;;;;;;4986734;28;20190;-74
2023/04/15 03:32:11;;;;;;;6.60;3.50;;;3.70;1.00;;;;;;4990294;28;20183;-75
2023/04/15 03:34:36;;;;;;;4.80;3.30;;;3.70;1.00;;;;;;5001957;28;20736;-75
2023/04/15 03:37:01;;;;;;;5.57;3.60;;;3.70;1.00;;;;;;5006822;28;20499;-75
2023/04/15 03:39:27;;;;;;;4.83;3.50;;;5.10;1.00;;;;;;4999666;28;20210;-74
2023/04/15 03:41:52;;;;;;;4.30;3.30;;;3.70;1.00;;;;;;4993055;28;20214;-74
2023/04/15 03:44:18;;;;;;;6.33;3.70;;;3.70;1.00;;;;;;4990721;28;20668;-75
2023/04/15 03:46:43;;;;;;;5.17;3.87;;;3.70;1.00;;;;;;5003720;28;20238;-75
2023/04/15 03:49:10;;;;;;;4.93;3.33;;;3.90;1.00;;;;;;4989188;28;20545;-74
2023/04/15 03:51:35;;;;;;;5.57;3.47;;;3.60;1.00;;;;;;5000459;28;20182;-75
2023/04/15 03:54:01;;;;;;;6.70;3.50;;;3.60;1.00;;;;;;4995482;28;20441;-74
2023/04/15 03:56:26;;;;;;;6.70;3.80;;;3.50;1.00;;;;;;4993309;28;20205;-75
2023/04/15 03:58:52;;;;;;;6.93;4.00;;;3.60;1.00;;;;;;4989111;28;20677;-75
2023/04/15 04:01:18;;;;;;;6.20;4.07;;;3.50;1.00;;;;;;4987524;28;20187;-75
2023/04/15 04:03:43;;;;;;;8.17;4.33;;;3.80;1.00;;;;;;4990280;28;20231;-74
2023/04/15 04:06:11;;;;;;;6.40;3.77;;;3.50;1.00;;;;;;4988635;28;20207;-74
2023/04/15 04:08:36;;;;;;;7.40;4.30;;;3.60;1.00;;;;;;4990549;28;20190;-74
2023/04/15 04:11:02;;;;;;;6.07;4.17;;;3.60;1.00;;;;;;4986069;28;20450;-74
2023/04/15 04:13:28;;;;;;;7.27;4.50;;;3.60;1.00;;;;;;4998298;28;20191;-74
2023/04/15 04:15:53;;;;;;;7.23;4.57;;;3.60;1.00;;;;;;4989116;28;20209;-74
2023/04/15 04:18:19;;;;;;;6.40;3.97;;;3.50;1.00;;;;;;4987990;28;20287;-74
2023/04/15 04:20:45;;;;;;;7.33;3.80;;;3.50;1.00;;;;;;4987584;28;20175;-74
2023/04/15 04:23:10;;;;;;;5.60;3.80;;;3.40;1.00;;;;;;5002528;28;20210;-74
2023/04/15 04:25:36;;;;;;;4.17;3.13;;;3.30;1.00;;;;;;5005166;28;20206;-74
2023/04/15 04:28:02;;;;;;;5.70;3.70;;;3.30;1.00;;;;;;4999029;28;20179;-75
2023/04/15 04:30:28;;;;;;;7.07;3.60;;;3.20;1.00;;;;;;5000999;28;20256;-74
2023/04/15 04:32:53;;;;;;;5.87;3.80;;;3.20;1.00;;;;;;4994229;28;20207;-73
2023/04/15 04:35:19;;;;;;;6.00;3.83;;;3.20;1.00;;;;;;4991622;28;20233;-74
2023/04/15 04:37:45;;;;;;;6.63;3.60;;;3.30;1.00;;;;;;4993915;28;20210;-75
2023/04/15 04:40:11;;;;;;;7.40;4.30;;;3.30;1.00;;;;;;5004786;28;20193;-73
2023/04/15 04:42:36;;;;;;;7.27;4.00;;;3.30;1.00;;;;;;5006526;28;20703;-74
2023/04/15 04:45:02;;;;;;;3.97;3.20;;;3.40;1.00;;;;;;5005286;28;20445;-74
2023/04/15 04:47:28;;;;;;;7.37;4.03;;;3.40;1.00;;;;;;5002441;28;20178;-74
2023/04/15 04:49:54;;;;;;;9.03;4.10;;;3.40;1.00;;;;;;5008084;28;20190;-74
2023/04/15 04:52:20;;;;;;;4.73;3.47;;;3.40;1.00;;;;;;4992793;28;20434;-74
2023/04/15 04:54:46;;;;;;;6.23;4.30;;;3.50;1.00;;;;;;4998434;28;20651;-75
2023/04/15 04:57:12;;;;;;;5.50;3.83;;;3.80;1.00;;;;;;5008558;28;20186;-74
2023/04/15 04:59:38;;;;;;;8.53;3.90;;;3.50;1.00;;;;;;5000882;28;20202;-73
2023/04/15 05:02:03;;;;;;;15.97;5.63;;;4.30;1.00;;;;;;5007170;28;20436;-74
2023/04/15 05:04:30;;;;;;;7.80;5.40;;;3.50;1.00;;;;;;4993110;28;20309;-74
2023/04/15 05:06:56;;;;;;;8.10;4.83;;;3.50;1.00;;;;;;4994525;28;20500;-74
2023/04/15 05:09:22;;;;;;;7.13;5.37;;;3.60;1.00;;;;;;4991484;28;20452;-74
2023/04/15 05:11:47;;;;;;;7.73;4.77;;;3.70;1.00;;;;;;4998389;28;20456;-74
2023/04/15 05:14:13;;;;;;;5.90;4.73;;;3.70;1.00;;;;;;4994664;28;20658;-74
2023/04/15 05:16:38;;;;;;;15.17;4.50;;;3.70;1.00;;;;;;4999893;28;20218;-74
2023/04/15 05:19:04;;;;;;;8.70;5.00;;;3.80;1.00;;;;;;4999410;28;20245;-75
2023/04/15 05:21:30;;;;;;;7.27;4.63;;;3.90;1.00;;;;;;5005877;28;20209;-74
2023/04/15 05:23:56;;;;;;;5.93;4.70;;;3.90;1.00;;;;;;4990878;28;20183;-74
2023/04/15 05:26:23;;;;;;;7.83;4.97;;;3.90;1.00;;;;;;5007626;28;20446;-74
2023/04/15 05:28:49;;;;;;;6.50;4.90;;;3.90;1.00;;;;;;5004752;28;20407;-75
2023/04/15 05:31:15;;;;;;;10.50;5.87;;;4.10;1.00;;;;;;4992135;28;20434;-74
2023/04/15 05:33:40;;;;;;;12.33;6.77;;;4.10;1.00;;;;;;4996034;28;20466;-74
2023/04/15 05:36:06;;;;;;;10.20;7.00;;;4.20;1.00;;;;;;4989785;28;20238;-74
2023/04/15 05:38:32;;;;;;;11.33;6.43;;;4.30;1.00;;;;;;5001288;28;20199;-74
2023/04/15 05:40:57;;;;;;;10.53;4.70;;;4.40;1.00;;;;;;4998591;28;20217;-75
2023/04/15 05:43:23;;;;;;;6.73;5.07;;;4.30;1.00;;;;;;4992892;28;20202;-74
2023/04/15 05:45:48;;;;;;;5.93;4.40;;;4.40;1.00;;;;;;5002920;28;20206;-75
2023/04/15 05:48:14;;;;;;;7.40;4.53;;;4.50;1.00;;;;;;4997990;28;20443;-74
2023/04/15 05:50:41;;;;;;;5.33;4.40;;;4.70;1.00;;;;;;5002826;28;20634;-74
2023/04/15 05:53:07;;;;;;;7.70;4.70;;;4.70;1.00;;;;;;4998534;28;20194;-74
2023/04/15 05:55:32;;;;;;;6.30;4.80;;;4.80;1.00;;;;;;5003141;28;20499;-74
2023/04/15 05:57:58;;;;;;;8.97;4.83;;;4.90;1.00;;;;;;5000120;28;20500;-74
2023/04/15 06:00:24;;;;;;;7.90;4.57;;;5.00;1.00;;;;;;4990793;28;20179;-74
2023/04/15 06:02:49;;;;;;;6.53;4.73;;;5.20;1.00;;;;;;4997343;28;20182;-74
2023/04/15 06:05:15;;;;;;;6.70;4.43;;;5.40;1.00;;;;;;4990095;28;20203;-74
2023/04/15 06:07:42;;;;;;;6.40;4.80;;;5.60;1.00;;;;;;4995730;28;20577;-74
2023/04/15 06:10:08;;;;;;;7.73;4.90;;;5.90;1.00;;;;;;5006092;28;20561;-74
2023/04/15 06:12:34;;;;;;;11.27;5.63;;;6.20;1.00;;;;;;4989478;28;20446;-74
2023/04/15 06:14:59;;;;;;;9.43;4.90;;;6.60;1.00;;;;;;5005419;28;20321;-75
2023/04/15 06:17:25;;;;;;;7.20;4.97;;;6.60;1.00;;;;;;4999798;28;20720;-74
2023/04/15 06:19:54;;;;;;;6.23;4.30;;;6.80;1.00;;;;;;4997932;28;20696;-74
2023/04/15 06:22:21;;;;;;;6.87;5.00;;;7.00;1.00;;;;;;5000357;28;20664;-75
2023/04/15 06:24:48;;;;;;;8.40;5.37;;;7.30;1.00;;;;;;4992704;28;20438;-75
2023/04/15 06:27:13;;;;;;;8.23;5.57;;;9.00;1.00;;;;;;4998943;28;20433;-74
2023/04/15 06:29:39;;;;;;;9.87;5.47;;;7.50;1.00;;;;;;5003053;28;20966;-75
2023/04/15 06:32:04;;;;;;;9.67;5.47;;;7.70;1.00;;;;;;4992017;28;20266;-74
2023/04/15 06:34:30;;;;;;;10.50;6.53;;;8.00;1.00;;;;;;5000870;28;20269;-74
2023/04/15 06:36:56;;;;;;;10.50;6.63;;;8.10;1.00;;;;;;4999311;28;20637;-74
2023/04/15 06:39:21;;;;;;;12.33;6.40;;;8.30;1.00;;;;;;4996561;28;20213;-74
2023/04/15 06:41:47;;;;;;;9.70;6.50;;;8.50;1.00;;;;;;4996777;28;20702;-74
2023/04/15 06:44:13;;;;;;;8.40;6.10;;;8.70;1.00;;;;;;4989645;28;20193;-75
2023/04/15 06:46:38;;;;;;;10.20;6.30;;;8.90;1.00;;;;;;4993792;28;20841;-75
2023/04/15 06:49:04;;;;;;;14.33;6.13;;;9.00;1.00;;;;;;4990727;28;20179;-77
2023/04/15 06:51:30;;;;;;;8.07;5.80;;;9.20;1.00;;;;;;4997155;28;20561;-77
2023/04/15 06:53:56;;;;;;;10.70;6.10;;;9.30;1.00;;;;;;4986670;28;20358;-75
2023/04/15 06:56:22;;;;;;;7.30;5.10;;;9.40;1.00;;;;;;4991080;28;20711;-74
2023/04/15 06:58:47;;;;;;;9.60;5.13;;;9.60;1.00;;;;;;4991357;28;20281;-74
2023/04/15 07:01:13;;;;;;;7.53;4.70;;;9.70;1.00;;;;;;5001819;28;20609;-74
2023/04/15 07:03:38;;;;;;;7.63;5.40;;;9.80;1.00;;;;;;4989654;28;20550;-74
2023/04/15 07:06:05;;;;;;;8.10;5.07;;;10.00;1.00;;;;;;5003123;28;20195;-75
2023/04/15 07:08:32;;;;;;;7.93;4.70;;;10.20;1.00;;;;;;4999771;28;20214;-74
2023/04/15 07:10:59;;;;;;;9.07;5.07;;;10.20;1.00;;;;;;4994712;28;20490;-74
2023/04/15 07:13:24;;;;;;;6.93;4.80;;;10.40;1.00;;;;;;4990808;28;20935;-75
2023/04/15 07:15:50;;;;;;;10.43;5.23;;;10.70;1.00;;;;;;5005452;28;20540;-75
2023/04/15 07:18:15;;;;;;;11.30;6.80;;;11.00;1.00;;;;;;4996472;28;20528;-73
2023/04/15 07:20:42;;;;;;;7.80;5.00;;;11.40;1.00;;;;;;4997155;28;20175;-74
2023/04/15 07:23:07;;;;;;;9.13;4.90;;;11.80;1.00;;;;;;4989859;28;20183;-74
2023/04/15 07:25:33;;;;;;;7.27;4.73;;;12.00;1.00;;;;;;4987423;28;20446;-74
2023/04/15 07:27:59;;;;;;;9.53;5.00;;;12.10;1.00;;;;;;4989952;28;20661;-74
2023/04/15 07:30:24;;;;;;;11.33;5.57;;;12.30;1.00;;;;;;4994194;28;20653;-75
2023/04/15 07:32:50;;;;;;;7.13;4.97;;;12.60;1.00;;;;;;4986962;28;20179;-75
2023/04/15 07:35:15;;;;;;;8.63;5.47;;;13.10;1.00;;;;;;4989718;28;20225;-75
2023/04/15 07:37:42;;;;;;;6.53;5.10;;;13.70;1.00;;;;;;4989255;28;20425;-74
2023/04/15 07:40:08;;;;;;;7.37;5.00;;;13.90;1.00;;;;;;4990490;28;20183;-75
2023/04/15 07:42:34;;;;;;;8.10;5.83;;;14.10;1.00;;;;;;4992436;28;20481;-74
2023/04/15 07:45:00;;;;;;;7.83;4.80;;;14.20;1.00;;;;;;4994424;28;20487;-75
2023/04/15 07:47:26;;;;;;;7.27;5.30;;;14.40;1.00;;;;;;4990062;28;20191;-74
2023/04/15 07:49:51;;;;;;;10.40;6.20;;;14.60;1.00;;;;;;4988938;28;20210;-74
2023/04/15 07:52:17;;;;;;;10.17;6.50;;;14.70;1.00;;;;;;4990126;28;20674;-73
2023/04/15 07:54:43;;;;;;;9.40;5.57;;;14.90;1.00;;;;;;4997253;28;20187;-74
2023/04/15 07:57:09;;;;;;;10.20;5.97;;;14.90;1.00;;;;;;4988893;28;20194;-74
2023/04/15 07:59:35;;;;;;;10.13;5.33;;;15.00;1.00;;;;;;5001792;28;20465;-75
2023/04/15 08:02:02;;;;;;;9.60;5.40;;;15.00;1.00;;;;;;5002876;28;20175;-74
2023/04/15 08:04:27;;;;;;;9.07;5.70;;;15.20;1.00;;;;;;4992007;28;20183;-74
2023/04/15 08:06:53;;;;;;;8.57;5.20;;;15.10;1.00;;;;;;5005581;28;20449;-74
2023/04/15 08:09:19;;;;;;;6.60;5.13;;;15.40;1.00;;;;;;4992356;28;20277;-74
2023/04/15 08:11:47;;;;;;;11.10;5.60;;;15.80;1.00;;;;;;4999562;28;20261;-74
2023/04/15 08:14:13;;;;;;;7.67;6.03;;;16.30;1.00;;;;;;5008486;28;20944;-75
2023/04/15 08:16:38;;;;;;;11.57;6.40;;;18.00;1.00;;;;;;4993408;28;20493;-75
2023/04/15 08:19:04;;;;;;;8.53;6.57;;;18.70;1.00;;;;;;5003228;28;20214;-75
2023/04/15 08:21:30;;;;;;;9.20;5.67;;;20.20;1.00;;;;;;5007690;28;20204;-75
2023/04/15 08:23:55;;;;;;;11.20;6.47;;;21.30;1.00;;;;;;4998398;28;20183;-76
2023/04/15 08:26:22;;;;;;;8.97;6.50;;;21.80;1.00;;;;;;4994460;28;20202;-74
2023/04/15 08:28:48;;;;;;;11.87;6.67;;;21.30;1.00;;;;;;4997012;28;20190;-76
2023/04/15 08:31:15;;;;;;;9.47;6.60;;;21.10;1.00;;;;;;5101932;22;20486;-75
2023/04/15 08:33:40;;;;;;;9.63;7.40;;;21.50;1.00;;;;;;5049942;28;20854;-72
2023/04/15 08:36:06;;;;;;;10.00;7.30;;;21.80;1.00;;;;;;5047764;28;20456;-72
2023/04/15 08:38:32;;;;;;;12.27;6.87;;;21.70;1.00;;;;;;5034519;28;20573;-72
2023/04/15 08:41:02;;;;;;;9.40;6.63;;;21.80;1.00;;;;;;5023023;28;20205;-73
2023/04/15 08:43:33;;;;;;;11.03;6.10;;;21.90;1.00;;;;;;5017481;28;20451;-73
2023/04/15 08:46:00;;;;;;;9.63;5.27;;;22.30;1.00;;;;;;5014919;28;20412;-72
2023/04/15 08:48:32;;;;;;;8.90;5.90;;;22.90;1.00;;;;;;5028626;28;20414;-72
2023/04/15 08:50:58;;;;;;;6.57;5.30;;;22.70;1.00;;;;;;5017735;28;20441;-72
2023/04/15 08:53:25;;;;;;;8.40;6.10;;;22.50;1.00;;;;;;5009546;28;20915;-73
2023/04/15 08:55:52;;;;;;;9.40;6.10;;;22.60;1.00;;;;;;5030279;28;20493;-73
2023/04/15 08:58:18;;;;;;;14.40;6.20;;;23.00;1.00;;;;;;5029713;28;20509;-72
2023/04/15 09:00:44;;;;;;;7.43;5.90;;;23.50;1.00;;;;;;5019171;28;20906;-72
2023/04/15 09:10:54;;;;;;;13.30;6.73;;;25.30;1.00;;;;;;5036877;22;20224;-75
2023/04/15 09:13:20;;;;;;;9.80;5.77;;;25.10;1.00;;;;;;5027723;28;20203;-75
2023/04/15 09:39:04;;;;;;;9.70;6.50;;;23.80;1.00;;;;;;5659097;22;20487;-74
2023/04/15 09:46:58;;;;;;;15.00;6.53;;;21.20;1.00;;;;;;6088228;22;20401;-72
2023/04/15 09:52:00;;;;;;;8.47;5.40;;;20.80;1.00;;;;;;5280108;22;20225;-73
2023/04/15 09:54:36;;;;;;;8.07;5.97;;;21.00;1.00;;;;;;5032000;28;20417;-73
2023/04/15 10:15:16;;;;;;;21.33;7.90;;;22.20;1.00;;;;;;6139269;22;20267;-75
2023/04/15 10:17:43;;;;;;;9.13;5.20;;;22.30;1.00;;;;;;4989918;28;20431;-73
2023/04/15 10:20:11;;;;;;;6.67;4.57;;;;;;;;;;4998052;28;20471;-74
2023/04/15 10:25:14;;;;;;;15.53;6.50;;;23.80;1.00;;;;;;6154989;22;20418;-74
2023/04/15 10:35:29;;;;;;;10.23;5.47;;;24.40;1.00;;;;;;5998640;22;20487;-74
2023/04/15 10:37:55;;;;;;;7.90;5.70;;;24.40;1.00;;;;;;5031085;28;20412;-73
2023/04/15 10:40:30;;;;;;;9.13;5.80;;;24.00;1.00;;;;;;5028432;28;20497;-74
2023/04/15 10:42:59;;;;;;;7.40;5.30;;;24.10;1.00;;;;;;5006087;28;20192;-73
2023/04/15 10:45:36;;;;;;;11.23;6.53;;;24.50;1.00;;;;;;5014886;28;20425;-73
2023/04/15 10:48:05;;;;;;;8.83;5.87;;;25.90;1.00;;;;;;5063210;22;20999;-75
2023/04/15 10:50:31;;;;;;;7.53;6.00;;;26.10;1.00;;;;;;5007879;28;20439;-75
2023/04/15 10:52:57;;;;;;;7.43;6.10;;;25.90;1.00;;;;;;5009486;28;20432;-75
2023/04/15 10:55:25;;;;;;;8.17;6.30;;;24.60;1.00;;;;;;5009598;28;20190;-75
2023/04/15 10:57:53;;;;;;;14.23;6.90;;;23.60;1.00;;;;;;5010520;28;20441;-75
2023/04/15 11:00:20;;;;;;;9.60;6.30;;;22.80;1.00;;;;;;5009444;28;20437;-75
2023/04/15 11:02:59;;;;;;;8.30;6.07;;;22.30;1.00;;;;;;5010584;28;20433;-75
2023/04/15 11:05:49;;;;;;;10.13;5.90;;;22.20;1.00;;;;;;5011879;28;20830;-75
2023/04/15 11:08:15;;;;;;;7.10;5.37;;;22.10;1.00;;;;;;5005489;28;20930;-75
2023/04/15 11:10:40;;;;;;;10.00;4.50;;;22.10;1.00;;;;;;5010085;28;20899;-75
2023/04/15 11:13:16;;;;;;;6.93;3.70;;;22.30;1.00;;;;;;5010369;28;20467;-75
2023/04/15 11:15:46;;;;;;;8.50;4.63;;;22.80;1.00;;;;;;5010278;28;20189;-75
2023/04/15 11:18:26;;;;;;;5.37;3.97;;;23.30;1.00;;;;;;5009654;28;20468;-75
2023/04/15 11:20:56;;;;;;;4.93;3.47;;;23.80;1.00;;;;;;5009662;28;20435;-75
2023/04/15 11:23:45;;;;;;;5.90;3.67;;;24.70;1.00;;;;;;5006920;28;20584;-75
2023/04/15 11:26:11;;;;;;;4.40;3.40;;;25.10;1.00;;;;;;5004666;28;20431;-76
2023/04/15 11:28:40;;;;;;;8.47;3.90;;;25.00;1.00;;;;;;5008684;28;20452;-76
2023/04/15 11:31:09;;;;;;;5.80;3.30;;;24.40;1.00;;;;;;5010515;28;20182;-76
2023/04/15 11:33:35;;;;;;;7.30;3.57;;;23.60;1.00;;;;;;5009682;28;20443;-74
2023/04/15 11:36:00;;;;;;;9.30;3.63;;;23.00;1.00;;;;;;5008848;28;20428;-75
2023/04/15 11:38:26;;;;;;;4.53;3.00;;;22.40;1.00;;;;;;5008753;28;20278;-75
2023/04/15 11:40:52;;;;;;;5.03;3.53;;;21.90;1.00;;;;;;5009637;28;20182;-75
2023/04/15 11:43:20;;;;;;;5.60;3.40;;;21.60;1.00;;;;;;5008036;28;20257;-75
2023/04/15 11:45:55;;;;;;;5.23;3.40;;;21.50;1.00;;;;;;5009119;28;20186;-75
2023/04/15 11:48:23;;;;;;;4.70;3.20;;;20.70;1.00;;;;;;5009822;28;20455;-75
2023/04/15 11:50:53;;;;;;;8.50;2.90;;;20.60;1.00;;;;;;5009474;28;20473;-75
2023/04/15 11:53:19;;;;;;;4.23;3.13;;;20.20;1.00;;;;;;5010097;28;20433;-75
2023/04/15 11:55:52;;;;;;;6.13;3.50;;;19.70;1.00;;;;;;5008326;28;20490;-75
2023/04/15 11:58:22;;;;;;;3.90;3.10;;;19.60;1.00;;;;;;5008274;28;20252;-75
2023/04/15 12:00:59;;;;;;;5.07;3.23;;;19.60;1.00;;;;;;5009392;28;20433;-75
2023/04/15 12:03:37;;;;;;;4.93;3.07;;;19.40;1.00;;;;;;5008270;28;20799;-75
2023/04/15 12:06:17;;;;;;;4.17;2.77;;;19.20;1.00;;;;;;5002561;28;20421;-75
2023/04/15 12:08:52;;;;;;;6.37;3.23;;;19.40;1.00;;;;;;5009812;28;20459;-75
2023/04/15 12:11:38;;;;;;;4.43;2.77;;;19.50;1.00;;;;;;5009565;28;20433;-76
2023/04/15 12:14:08;;;;;;;4.57;3.00;;;19.80;1.00;;;;;;5001562;28;20947;-76
2023/04/15 12:16:36;;;;;;;4.80;2.80;;;20.10;1.00;;;;;;5009222;28;20930;-75
2023/04/15 12:19:06;;;;;;;4.50;2.83;;;20.80;1.00;;;;;;5009717;28;20475;-74
2023/04/15 12:21:37;;;;;;;8.03;3.33;;;21.20;1.00;;;;;;5009286;28;20515;-74
2023/04/15 12:24:05;;;;;;;4.17;3.10;;;21.30;1.00;;;;;;5002304;28;20456;-75
2023/04/15 12:26:32;;;;;;;4.73;2.90;;;20.80;1.00;;;;;;5007429;28;20502;-74
2023/04/15 12:29:02;;;;;;;3.57;2.73;;;19.90;1.00;;;;;;5007297;28;20879;-74
2023/04/15 12:31:28;;;;;;;4.20;2.77;;;19.60;1.00;;;;;;5009005;28;20595;-74
2023/04/15 12:33:55;;;;;;;5.80;3.20;;;19.30;1.00;;;;;;5007334;28;20521;-73
2023/04/15 12:36:21;;;;;;;4.53;3.00;;;18.80;1.00;;;;;;5009517;28;20249;-75
2023/04/15 12:38:47;;;;;;;5.07;3.10;;;18.60;1.00;;;;;;5008740;28;20480;-73
2023/04/15 12:41:12;;;;;;;8.40;3.00;;;18.70;1.00;;;;;;5008902;28;20441;-75
2023/04/15 12:43:38;;;;;;;4.00;2.93;;;19.60;1.00;;;;;;5007766;28;20644;-74
2023/04/15 12:46:04;;;;;;;3.93;2.87;;;18.30;1.00;;;;;;5007645;28;20203;-75
2023/04/15 12:48:29;;;;;;;5.67;3.17;;;18.10;1.00;;;;;;5006486;28;20217;-74
2023/04/15 12:50:55;;;;;;;7.83;3.00;;;18.00;1.00;;;;;;5005654;28;20183;-74
2023/04/15 12:53:21;;;;;;;4.50;3.20;;;17.70;1.00;;;;;;5006568;28;20199;-74
2023/04/15 12:55:47;;;;;;;7.43;3.50;;;17.40;1.00;;;;;;5008052;28;20182;-75
2023/04/15 12:58:13;;;;;;;4.40;2.90;;;17.00;1.00;;;;;;5012086;28;20229;-74
2023/04/15 13:00:39;;;;;;;4.27;3.17;;;17.00;1.00;;;;;;5011253;28;20887;-74
2023/04/15 13:03:04;;;;;;;4.67;3.17;;;16.80;1.00;;;;;;5008518;28;20193;-73
2023/04/15 13:05:30;;;;;;;6.00;3.30;;;17.10;1.00;;;;;;5012247;28;20199;-74
2023/04/15 13:07:55;;;;;;;3.47;3.13;;;16.80;1.00;;;;;;5008477;28;20202;-74
2023/04/15 13:10:21;;;;;;;4.00;3.10;;;16.80;1.00;;;;;;5010382;28;20419;-74
2023/04/15 13:12:52;;;;;;;5.73;3.33;;;16.90;1.00;;;;;;5008325;28;20691;-74
2023/04/15 13:15:21;;;;;;;6.20;3.47;;;17.00;1.00;;;;;;5007266;28;20187;-73
2023/04/15 13:17:47;;;;;;;4.50;3.20;;;17.00;1.00;;;;;;5008693;28;20545;-74
2023/04/15 13:20:13;;;;;;;4.97;3.10;;;17.00;1.00;;;;;;5010949;28;20444;-74
2023/04/15 13:22:39;;;;;;;4.63;2.80;;;17.00;1.00;;;;;;5009508;28;20264;-73
2023/04/15 13:25:06;;;;;;;3.50;2.90;;;16.90;1.00;;;;;;5008903;28;20615;-74
2023/04/15 13:27:32;;;;;;;4.73;2.70;;;16.90;1.00;;;;;;5007300;28;20878;-74
2023/04/15 13:29:58;;;;;;;2.93;2.20;;;16.90;1.00;;;;;;5011015;28;20507;-74
2023/04/15 13:32:24;;;;;;;3.00;2.27;;;16.80;1.00;;;;;;5009931;28;20821;-74
2023/04/15 13:34:50;;;;;;;6.23;2.43;;;16.80;1.00;;;;;;5010122;28;20445;-74
2023/04/15 13:37:15;;;;;;;2.43;1.70;;;16.70;1.00;;;;;;5011918;28;20183;-74
2023/04/15 13:39:40;;;;;;;1.97;1.37;;;16.50;1.00;;;;;;5009257;28;20268;-74
2023/04/15 13:42:06;;;;;;;2.57;1.50;;;16.50;1.00;;;;;;5011589;28;20269;-74
2023/04/15 13:44:31;;;;;;;2.20;1.30;;;16.40;1.00;;;;;;5010377;28;20556;-74
2023/04/15 13:46:57;;;;;;;2.70;1.50;;;16.50;1.00;;;;;;5010735;28;20182;-74
2023/04/15 13:49:23;;;;;;;101.43;9.10;;;16.60;1.00;;;;;;5011463;28;20226;-76
2023/04/15 13:51:49;;;;;;;3.23;1.60;;;16.70;1.00;;;;;;5010658;28;20726;-73
2023/04/15 13:54:15;;;;;;;5.17;1.80;;;17.00;1.00;;;;;;5011742;28;20190;-74
2023/04/15 13:56:41;;;;;;;2.27;1.80;;;17.10;1.00;;;;;;5011006;28;20433;-74
2023/04/15 13:59:07;;;;;;;3.80;2.00;;;17.10;1.00;;;;;;5009938;28;20713;-74
2023/04/15 14:01:33;;;;;;;2.57;1.80;;;17.00;1.00;;;;;;5007846;28;20260;-74
2023/04/15 14:03:59;;;;;;;2.90;2.00;;;17.00;1.00;;;;;;5010510;28;20481;-75
2023/04/15 14:06:26;;;;;;;3.13;2.30;;;16.90;1.00;;;;;;5009242;28;20440;-74
2023/04/15 14:08:51;;;;;;;6.77;2.27;;;16.70;1.00;;;;;;5007038;28;20217;-73